Contact Info

Augusta Flying Club, Inc

KDNL 161153Z AUTO 19005KT 9SM OVC003 23/23 A3017 RMK AO2 SLP209 T02330228 10256 20233 53018


TAF KDNL 161140Z 1612/1712 00000KT P6SM BKN006 FM161400 VRB03KT P6SM SCT250 FM161600 21004KT P6SM SCT040 FM170000 VRB03KT P6SM SCT250

info@augustaflyingclub.com

Send us a message